sensor_id;sensor_type;location;lat;lon;timestamp;pressure;altitude;pressure_sealevel;temperature;humidity
55068;BME280;40965;52.368;9.712;2023-04-01T00:01:00;98776.53;;;9.09;100.00
55068;BME280;40965;52.368;9.712;2023-04-01T00:03:28;98775.69;;;9.09;100.00
55068;BME280;40965;52.368;9.712;2023-04-01T00:05:57;98778.25;;;9.10;100.00
55068;BME280;40965;52.368;9.712;2023-04-01T00:08:26;98776.47;;;9.11;100.00
55068;BME280;40965;52.368;9.712;2023-04-01T00:10:54;98776.34;;;9.16;100.00
55068;BME280;40965;52.368;9.712;2023-04-01T00:13:22;98775.44;;;9.17;100.00
55068;BME280;40965;52.368;9.712;2023-04-01T00:15:50;98778.81;;;9.19;100.00
55068;BME280;40965;52.368;9.712;2023-04-01T00:18:17;98781.38;;;9.20;100.00
55068;BME280;40965;52.368;9.712;2023-04-01T00:20:45;98774.41;;;9.21;100.00
55068;BME280;40965;52.368;9.712;2023-04-01T00:23:12;98782.19;;;9.22;100.00
55068;BME280;40965;52.368;9.712;2023-04-01T00:25:39;98781.34;;;9.22;100.00
55068;BME280;40965;52.368;9.712;2023-04-01T00:28:06;98776.97;;;9.22;100.00
55068;BME280;40965;52.368;9.712;2023-04-01T00:30:32;98777.94;;;9.20;100.00
55068;BME280;40965;52.368;9.712;2023-04-01T00:32:58;98781.44;;;9.19;100.00
55068;BME280;40965;52.368;9.712;2023-04-01T00:35:25;98777.16;;;9.16;100.00
55068;BME280;40965;52.368;9.712;2023-04-01T00:37:51;98772.88;;;9.15;100.00
55068;BME280;40965;52.368;9.712;2023-04-01T00:40:30;98779.06;;;9.13;100.00
55068;BME280;40965;52.368;9.712;2023-04-01T00:42:59;98780.00;;;9.10;100.00
55068;BME280;40965;52.368;9.712;2023-04-01T00:45:37;98774.88;;;9.07;100.00
55068;BME280;40965;52.368;9.712;2023-04-01T00:48:17;98783.66;;;9.04;100.00
55068;BME280;40965;52.368;9.712;2023-04-01T00:50:53;98773.31;;;9.01;100.00
55068;BME280;40965;52.368;9.712;2023-04-01T00:53:23;98776.88;;;8.99;100.00
55068;BME280;40965;52.368;9.712;2023-04-01T00:56:14;98774.34;;;8.97;100.00
55068;BME280;40965;52.368;9.712;2023-04-01T00:58:46;98774.41;;;8.94;100.00
55068;BME280;40965;52.368;9.712;2023-04-01T01:01:15;98782.25;;;8.94;100.00
55068;BME280;40965;52.368;9.712;2023-04-01T01:03:42;98789.19;;;8.95;100.00
55068;BME280;40965;52.368;9.712;2023-04-01T01:06:14;98788.34;;;8.94;100.00
55068;BME280;40965;52.368;9.712;2023-04-01T01:08:55;98784.00;;;8.93;100.00
55068;BME280;40965;52.368;9.712;2023-04-01T01:11:37;98788.38;;;8.93;100.00
55068;BME280;40965;52.368;9.712;2023-04-01T01:14:29;98782.34;;;8.91;100.00
55068;BME280;40965;52.368;9.712;2023-04-01T01:17:42;98785.91;;;8.88;100.00
55068;BME280;40965;52.368;9.712;2023-04-01T01:20:49;98786.03;;;8.85;100.00
55068;BME280;40965;52.368;9.712;2023-04-01T01:23:43;98783.59;;;8.79;100.00
55068;BME280;40965;52.368;9.712;2023-04-01T01:29:39;98780.28;;;8.74;100.00
55068;BME280;40965;52.368;9.712;2023-04-01T01:35:43;98784.63;;;8.73;100.00
55068;BME280;40965;52.368;9.712;2023-04-01T01:38:15;98782.06;;;8.72;100.00
55068;BME280;40965;52.368;9.712;2023-04-01T01:40:49;98782.94;;;8.72;100.00
55068;BME280;40965;52.368;9.712;2023-04-01T01:43:21;98769.84;;;8.74;100.00
55068;BME280;40965;52.368;9.712;2023-04-01T01:45:54;98784.63;;;8.73;100.00
55068;BME280;40965;52.368;9.712;2023-04-01T01:48:23;98775.06;;;8.74;100.00
55068;BME280;40965;52.368;9.712;2023-04-01T01:50:51;98780.28;;;8.74;100.00
55068;BME280;40965;52.368;9.712;2023-04-01T01:53:18;98778.53;;;8.74;100.00
55068;BME280;40965;52.368;9.712;2023-04-01T01:55:46;98775.06;;;8.74;100.00
55068;BME280;40965;52.368;9.712;2023-04-01T01:58:22;98772.41;;;8.75;100.00
55068;BME280;40965;52.368;9.712;2023-04-01T02:01:00;98784.56;;;8.76;100.00
55068;BME280;40965;52.368;9.712;2023-04-01T02:03:33;98779.28;;;8.78;100.00
55068;BME280;40965;52.368;9.712;2023-04-01T02:06:03;98781.00;;;8.79;100.00
55068;BME280;40965;52.368;9.712;2023-04-01T02:08:44;98780.09;;;8.80;100.00
55068;BME280;40965;52.368;9.712;2023-04-01T02:11:16;98776.63;;;8.80;100.00
55068;BME280;40965;52.368;9.712;2023-04-01T02:13:55;98782.72;;;8.80;100.00
55068;BME280;40965;52.368;9.712;2023-04-01T02:16:36;98785.25;;;8.82;100.00
55068;BME280;40965;52.368;9.712;2023-04-01T02:19:06;98778.28;;;8.82;100.00
55068;BME280;40965;52.368;9.712;2023-04-01T02:21:34;98777.44;;;8.82;100.00
55068;BME280;40965;52.368;9.712;2023-04-01T02:24:04;98789.59;;;8.81;100.00
55068;BME280;40965;52.368;9.712;2023-04-01T02:26:36;98780.94;;;8.81;100.00
55068;BME280;40965;52.368;9.712;2023-04-01T02:29:04;98785.31;;;8.80;100.00
55068;BME280;40965;52.368;9.712;2023-04-01T02:31:33;98785.22;;;8.83;100.00
55068;BME280;40965;52.368;9.712;2023-04-01T02:34:02;98781.69;;;8.84;100.00
55068;BME280;40965;52.368;9.712;2023-04-01T02:36:29;98784.25;;;8.86;100.00
55068;BME280;40965;52.368;9.712;2023-04-01T02:38:57;98785.97;;;8.87;100.00
55068;BME280;40965;52.368;9.712;2023-04-01T02:41:27;98795.47;;;8.89;100.00
55068;BME280;40965;52.368;9.712;2023-04-01T02:43:54;98790.28;;;8.88;100.00
55068;BME280;40965;52.368;9.712;2023-04-01T02:46:22;98780.63;;;8.90;100.00
55068;BME280;40965;52.368;9.712;2023-04-01T02:48:49;98785.03;;;8.89;100.00
55068;BME280;40965;52.368;9.712;2023-04-01T02:51:15;98788.41;;;8.91;100.00
55068;BME280;40965;52.368;9.712;2023-04-01T02:53:42;98793.63;;;8.93;100.00
55068;BME280;40965;52.368;9.712;2023-04-01T02:56:09;98792.69;;;8.94;100.00
55068;BME280;40965;52.368;9.712;2023-04-01T02:58:35;98791.84;;;8.93;100.00
55068;BME280;40965;52.368;9.712;2023-04-01T03:01:01;98797.06;;;8.93;100.00
55068;BME280;40965;52.368;9.712;2023-04-01T03:03:28;98793.63;;;8.91;100.00
55068;BME280;40965;52.368;9.712;2023-04-01T03:05:54;98792.84;;;8.89;100.00
55068;BME280;40965;52.368;9.712;2023-04-01T03:08:23;98792.03;;;8.87;100.00
55068;BME280;40965;52.368;9.712;2023-04-01T03:10:50;98796.47;;;8.85;100.00
55068;BME280;40965;52.368;9.712;2023-04-01T03:13:16;98792.19;;;8.83;100.00
55068;BME280;40965;52.368;9.712;2023-04-01T03:15:43;98790.47;;;8.82;100.00
55068;BME280;40965;52.368;9.712;2023-04-01T03:18:09;98795.75;;;8.80;100.00
55068;BME280;40965;52.368;9.712;2023-04-01T03:20:36;98795.78;;;8.78;100.00
55068;BME280;40965;52.368;9.712;2023-04-01T03:23:02;98795.81;;;8.77;100.00
55068;BME280;40965;52.368;9.712;2023-04-01T03:25:29;98794.16;;;8.74;100.00
55068;BME280;40965;52.368;9.712;2023-04-01T03:27:55;98799.38;;;8.74;100.00
55068;BME280;40965;52.368;9.712;2023-04-01T03:30:24;98799.38;;;8.74;100.00
55068;BME280;40965;52.368;9.712;2023-04-01T03:32:51;98798.59;;;8.72;100.00
55068;BME280;40965;52.368;9.712;2023-04-01T03:35:18;98800.34;;;8.72;100.00
55068;BME280;40965;52.368;9.712;2023-04-01T03:37:45;98797.84;;;8.69;100.00
55068;BME280;40965;52.368;9.712;2023-04-01T03:40:11;98804.00;;;8.66;100.00
55068;BME280;40965;52.368;9.712;2023-04-01T03:42:38;98802.28;;;8.65;100.00
55068;BME280;40965;52.368;9.712;2023-04-01T03:45:05;98798.88;;;8.63;100.00
55068;BME280;40965;52.368;9.712;2023-04-01T03:47:32;98809.41;;;8.60;100.00
55068;BME280;40965;52.368;9.712;2023-04-01T03:49:58;98804.28;;;8.57;100.00
55068;BME280;40965;52.368;9.712;2023-04-01T03:52:25;98811.25;;;8.56;100.00
55068;BME280;40965;52.368;9.712;2023-04-01T03:54:51;98813.09;;;8.53;100.00
55068;BME280;40965;52.368;9.712;2023-04-01T03:57:18;98812.34;;;8.49;100.00
55068;BME280;40965;52.368;9.712;2023-04-01T03:59:44;98804.56;;;8.48;100.00
55068;BME280;40965;52.368;9.712;2023-04-01T04:02:10;98811.53;;;8.47;100.00
55068;BME280;40965;52.368;9.712;2023-04-01T04:04:37;98810.69;;;8.47;100.00
55068;BME280;40965;52.368;9.712;2023-04-01T04:07:03;98810.69;;;8.47;100.00
55068;BME280;40965;52.368;9.712;2023-04-01T04:09:33;98808.97;;;8.44;100.00
55068;BME280;40965;52.368;9.712;2023-04-01T04:12:00;98815.13;;;8.41;100.00
55068;BME280;40965;52.368;9.712;2023-04-01T04:14:27;98818.69;;;8.39;100.00
55068;BME280;40965;52.368;9.712;2023-04-01T04:16:53;98820.53;;;8.35;100.00
55068;BME280;40965;52.368;9.712;2023-04-01T04:21:53;98819.97;;;8.25;100.00
55068;BME280;40965;52.368;9.712;2023-04-01T04:24:19;98816.56;;;8.22;100.00
55068;BME280;40965;52.368;9.712;2023-04-01T04:26:46;98827.06;;;8.20;100.00
55068;BME280;40965;52.368;9.712;2023-04-01T04:29:12;98814.06;;;8.19;100.00
55068;BME280;40965;52.368;9.712;2023-04-01T04:31:39;98825.41;;;8.18;100.00
55068;BME280;40965;52.368;9.712;2023-04-01T04:34:05;98828.06;;;8.16;100.00
55068;BME280;40965;52.368;9.712;2023-04-01T04:36:32;98823.78;;;8.14;100.00
55068;BME280;40965;52.368;9.712;2023-04-01T04:38:58;98819.50;;;8.11;100.00
55068;BME280;40965;52.368;9.712;2023-04-01T04:41:45;98834.31;;;8.09;100.00
55068;BME280;40965;52.368;9.712;2023-04-01T04:44:11;98835.22;;;8.08;100.00
55068;BME280;40965;52.368;9.712;2023-04-01T04:46:38;98832.66;;;8.06;100.00
55068;BME280;40965;52.368;9.712;2023-04-01T04:49:05;98837.03;;;8.04;100.00
55068;BME280;40965;52.368;9.712;2023-04-01T04:51:32;98831.97;;;8.00;100.00
55068;BME280;40965;52.368;9.712;2023-04-01T04:54:01;98840.81;;;7.94;100.00
55068;BME280;40965;52.368;9.712;2023-04-01T04:56:28;98838.34;;;7.89;100.00
55068;BME280;40965;52.368;9.712;2023-04-01T04:58:56;98836.75;;;7.84;100.00
55068;BME280;40965;52.368;9.712;2023-04-01T05:01:23;98840.19;;;7.84;100.00
55068;BME280;40965;52.368;9.712;2023-04-01T05:03:49;98841.97;;;7.84;100.00
55068;BME280;40965;52.368;9.712;2023-04-01T05:06:17;98841.97;;;7.84;100.00
55068;BME280;40965;52.368;9.712;2023-04-01T05:08:44;98837.66;;;7.83;100.00
55068;BME280;40965;52.368;9.712;2023-04-01T05:11:16;98840.28;;;7.81;100.00
55068;BME280;40965;52.368;9.712;2023-04-01T05:13:44;98848.09;;;7.81;100.00
55068;BME280;40965;52.368;9.712;2023-04-01T05:16:14;98844.56;;;7.84;100.00
55068;BME280;40965;52.368;9.712;2023-04-01T05:18:42;98845.41;;;7.84;100.00
55068;BME280;40965;52.368;9.712;2023-04-01T05:21:10;98841.03;;;7.86;100.00
55068;BME280;40965;52.368;9.712;2023-04-01T05:23:38;98846.97;;;7.91;100.00
55068;BME280;40965;52.368;9.712;2023-04-01T05:26:06;98848.63;;;7.94;100.00
55068;BME280;40965;52.368;9.712;2023-04-01T05:28:34;98852.88;;;7.98;100.00
55068;BME280;40965;52.368;9.712;2023-04-01T05:31:01;98848.50;;;7.99;100.00
55068;BME280;40965;52.368;9.712;2023-04-01T05:33:35;98857.19;;;7.99;100.00
55068;BME280;40965;52.368;9.712;2023-04-01T05:36:09;98851.94;;;8.01;100.00
55068;BME280;40965;52.368;9.712;2023-04-01T05:38:37;98856.16;;;8.05;100.00
55068;BME280;40965;52.368;9.712;2023-04-01T05:41:04;98846.53;;;8.07;100.00
55068;BME280;40965;52.368;9.712;2023-04-01T05:43:30;98855.06;;;8.12;100.00
55068;BME280;40965;52.368;9.712;2023-04-01T05:45:57;98848.06;;;8.14;100.00
55068;BME280;40965;52.368;9.712;2023-04-01T05:48:24;98859.19;;;8.21;100.00
55068;BME280;40965;52.368;9.712;2023-04-01T05:50:51;98862.56;;;8.24;100.00
55068;BME280;40965;52.368;9.712;2023-04-01T05:53:17;98865.91;;;8.30;100.00
55068;BME280;40965;52.368;9.712;2023-04-01T05:55:44;98861.41;;;8.35;100.00
55068;BME280;40965;52.368;9.712;2023-04-01T05:58:12;98865.56;;;8.40;100.00
55068;BME280;40965;52.368;9.712;2023-04-01T06:00:40;98865.47;;;8.45;100.00
55068;BME280;40965;52.368;9.712;2023-04-01T06:03:06;98858.38;;;8.50;100.00
55068;BME280;40965;52.368;9.712;2023-04-01T06:05:40;98860.84;;;8.55;100.00
55068;BME280;40965;52.368;9.712;2023-04-01T06:08:17;98862.47;;;8.59;100.00
55068;BME280;40965;52.368;9.712;2023-04-01T06:14:02;98875.03;;;8.74;100.00
55068;BME280;40965;52.368;9.712;2023-04-01T06:19:57;98879.09;;;8.85;100.00
55068;BME280;40965;52.368;9.712;2023-04-01T06:28:20;98882.84;;;9.04;100.00
55068;BME280;40965;52.368;9.712;2023-04-01T06:34:36;98877.31;;;9.14;100.00
55068;BME280;40965;52.368;9.712;2023-04-01T06:37:27;98892.00;;;9.18;100.00
55068;BME280;40965;52.368;9.712;2023-04-01T06:43:01;98893.56;;;9.23;100.00
55068;BME280;40965;52.368;9.712;2023-04-01T06:45:47;98897.13;;;9.21;100.00
55068;BME280;40965;52.368;9.712;2023-04-01T06:49:02;98897.91;;;9.23;100.00
55068;BME280;40965;52.368;9.712;2023-04-01T06:52:26;98896.00;;;9.28;100.00
55068;BME280;40965;52.368;9.712;2023-04-01T06:55:24;98899.25;;;9.36;100.00
55068;BME280;40965;52.368;9.712;2023-04-01T06:58:19;98901.50;;;9.47;100.00
55068;BME280;40965;52.368;9.712;2023-04-01T07:01:06;98901.38;;;9.52;100.00
55068;BME280;40965;52.368;9.712;2023-04-01T07:03:53;98905.53;;;9.57;100.00
55068;BME280;40965;52.368;9.712;2023-04-01T07:06:36;98906.28;;;9.61;100.00
55068;BME280;40965;52.368;9.712;2023-04-01T07:09:14;98908.97;;;9.59;100.00
55068;BME280;40965;52.368;9.712;2023-04-01T07:11:44;98910.63;;;9.60;100.00
55068;BME280;40965;52.368;9.712;2023-04-01T07:14:22;98909.50;;;9.69;100.00
55068;BME280;40965;52.368;9.712;2023-04-01T07:16:59;98919.03;;;9.70;100.00
55068;BME280;40965;52.368;9.712;2023-04-01T07:22:24;98918.84;;;9.76;100.00
55068;BME280;40965;52.368;9.712;2023-04-01T07:24:53;98926.75;;;9.73;100.00
55068;BME280;40965;52.368;9.712;2023-04-01T07:27:23;98922.56;;;9.69;100.00
55068;BME280;40965;52.368;9.712;2023-04-01T07:29:50;98930.38;;;9.69;100.00
55068;BME280;40965;52.368;9.712;2023-04-01T07:32:26;98932.19;;;9.67;100.00
55068;BME280;40965;52.368;9.712;2023-04-01T07:36:07;98930.38;;;9.69;100.00
55068;BME280;40965;52.368;9.712;2023-04-01T07:41:25;98945.31;;;9.92;100.00
55068;BME280;40965;52.368;9.712;2023-04-01T07:44:10;98942.50;;;9.99;100.00
55068;BME280;40965;52.368;9.712;2023-04-01T07:47:49;98942.88;;;10.13;100.00
55068;BME280;40965;52.368;9.712;2023-04-01T07:50:06;98950.28;;;10.25;100.00
55068;BME280;40965;52.368;9.712;2023-04-01T07:53:10;98947.22;;;10.39;100.00
55068;BME280;40965;52.368;9.712;2023-04-01T07:55:45;98952.06;;;10.50;100.00
55068;BME280;40965;52.368;9.712;2023-04-01T07:58:34;98952.31;;;10.68;100.00
55068;BME280;40965;52.368;9.712;2023-04-01T08:01:40;98958.97;;;11.00;100.00
55068;BME280;40965;52.368;9.712;2023-04-01T08:04:29;98954.91;;;11.37;100.00
55068;BME280;40965;52.368;9.712;2023-04-01T08:07:39;98957.94;;;11.71;100.00
55068;BME280;40965;52.368;9.712;2023-04-01T08:10:21;98961.56;;;12.11;100.00
55068;BME280;40965;52.368;9.712;2023-04-01T08:13:24;98960.38;;;12.98;100.00
55068;BME280;40965;52.368;9.712;2023-04-01T08:16:23;98964.97;;;14.21;94.63
55068;BME280;40965;52.368;9.712;2023-04-01T08:19:25;98970.25;;;14.72;90.67
55068;BME280;40965;52.368;9.712;2023-04-01T08:22:03;98969.38;;;15.05;89.23
55068;BME280;40965;52.368;9.712;2023-04-01T08:24:43;98974.06;;;15.16;87.88
55068;BME280;40965;52.368;9.712;2023-04-01T08:27:18;98972.56;;;14.61;86.05
55068;BME280;40965;52.368;9.712;2023-04-01T08:30:01;98973.19;;;14.33;89.66
55068;BME280;40965;52.368;9.712;2023-04-01T08:32:36;98977.88;;;14.26;88.59
55068;BME280;40965;52.368;9.712;2023-04-01T08:35:27;98984.47;;;14.00;86.43
55068;BME280;40965;52.368;9.712;2023-04-01T08:38:01;98984.00;;;13.92;86.90
55068;BME280;40965;52.368;9.712;2023-04-01T08:40:53;98972.06;;;13.84;88.04
55068;BME280;40965;52.368;9.712;2023-04-01T08:46:13;98987.66;;;13.70;88.21
55068;BME280;40965;52.368;9.712;2023-04-01T08:54:37;98999.84;;;12.96;90.42
55068;BME280;40965;52.368;9.712;2023-04-01T08:57:48;98991.75;;;12.82;88.55
55068;BME280;40965;52.368;9.712;2023-04-01T09:00:30;99000.69;;;12.57;89.92
55068;BME280;40965;52.368;9.712;2023-04-01T09:06:32;99002.75;;;12.50;88.64
55068;BME280;40965;52.368;9.712;2023-04-01T09:09:36;99005.69;;;12.22;89.71
55068;BME280;40965;52.368;9.712;2023-04-01T09:12:51;98995.94;;;12.26;91.29
55068;BME280;40965;52.368;9.712;2023-04-01T09:15:37;99009.97;;;12.24;91.07
55068;BME280;40965;52.368;9.712;2023-04-01T09:24:46;99008.91;;;12.70;89.39
55068;BME280;40965;52.368;9.712;2023-04-01T09:27:26;99007.16;;;12.89;88.30
55068;BME280;40965;52.368;9.712;2023-04-01T09:30:17;99008.72;;;12.94;88.40
55068;BME280;40965;52.368;9.712;2023-04-01T09:33:45;99021.84;;;13.13;86.76
55068;BME280;40965;52.368;9.712;2023-04-01T09:44:59;99030.09;;;13.62;84.94
55068;BME280;40965;52.368;9.712;2023-04-01T09:47:55;99034.44;;;13.25;85.11
55068;BME280;40965;52.368;9.712;2023-04-01T09:50:46;99033.66;;;13.04;86.51
55068;BME280;40965;52.368;9.712;2023-04-01T09:53:31;99033.38;;;12.70;86.33
55068;BME280;40965;52.368;9.712;2023-04-01T09:56:37;99045.19;;;12.39;88.95
55068;BME280;40965;52.368;9.712;2023-04-01T09:59:49;99041.81;;;12.56;89.15
55068;BME280;40965;52.368;9.712;2023-04-01T10:18:51;99066.00;;;12.65;88.52
55068;BME280;40965;52.368;9.712;2023-04-01T10:27:21;99067.00;;;13.02;87.71
55068;BME280;40965;52.368;9.712;2023-04-01T10:30:50;99066.81;;;13.06;86.46
55068;BME280;40965;52.368;9.712;2023-04-01T10:46:31;99073.59;;;13.69;83.58
55068;BME280;40965;52.368;9.712;2023-04-01T10:52:27;99080.72;;;13.48;85.15
55068;BME280;40965;52.368;9.712;2023-04-01T10:55:24;99072.91;;;13.47;85.24
55068;BME280;40965;52.368;9.712;2023-04-01T11:01:49;99080.19;;;13.21;84.29
55068;BME280;40965;52.368;9.712;2023-04-01T11:05:05;99084.47;;;13.03;85.91
55068;BME280;40965;52.368;9.712;2023-04-01T11:11:25;99090.97;;;12.94;87.27
55068;BME280;40965;52.368;9.712;2023-04-01T11:17:58;99100.44;;;12.57;88.21
55068;BME280;40965;52.368;9.712;2023-04-01T11:26:33;99109.16;;;12.57;89.76
55068;BME280;40965;52.368;9.712;2023-04-01T11:29:18;99110.56;;;12.66;88.75
55068;BME280;40965;52.368;9.712;2023-04-01T11:35:48;99109.09;;;12.59;88.76
55068;BME280;40965;52.368;9.712;2023-04-01T11:38:49;99127.69;;;12.54;88.68
55068;BME280;40965;52.368;9.712;2023-04-01T11:41:46;99125.97;;;12.53;89.87
55068;BME280;40965;52.368;9.712;2023-04-01T11:44:26;99117.31;;;12.72;88.99
55068;BME280;40965;52.368;9.712;2023-04-01T11:47:24;99124.78;;;13.02;88.14
55068;BME280;40965;52.368;9.712;2023-04-01T11:50:10;99123.81;;;13.04;87.25
55068;BME280;40965;52.368;9.712;2023-04-01T12:07:42;99131.34;;;15.49;76.14
55068;BME280;40965;52.368;9.712;2023-04-01T12:10:26;99135.53;;;15.69;76.30
55068;BME280;40965;52.368;9.712;2023-04-01T12:13:18;99140.16;;;15.66;75.33
55068;BME280;40965;52.368;9.712;2023-04-01T12:16:29;99153.81;;;15.23;74.60
55068;BME280;40965;52.368;9.712;2023-04-01T12:19:14;99145.47;;;14.97;76.47
55068;BME280;40965;52.368;9.712;2023-04-01T12:22:41;99148.09;;;14.62;77.54
55068;BME280;40965;52.368;9.712;2023-04-01T12:25:03;99153.25;;;14.10;80.42
55068;BME280;40965;52.368;9.712;2023-04-01T12:28:18;99154.22;;;13.70;81.79
55068;BME280;40965;52.368;9.712;2023-04-01T12:31:12;99160.16;;;13.55;82.75
55068;BME280;40965;52.368;9.712;2023-04-01T12:37:10;99169.56;;;13.40;84.53
55068;BME280;40965;52.368;9.712;2023-04-01T12:39:58;99168.59;;;13.43;83.78
55068;BME280;40965;52.368;9.712;2023-04-01T12:43:07;99166.91;;;13.61;82.87
55068;BME280;40965;52.368;9.712;2023-04-01T12:46:19;99172.88;;;13.64;82.38
55068;BME280;40965;52.368;9.712;2023-04-01T12:58:15;99186.75;;;14.25;80.84
55068;BME280;40965;52.368;9.712;2023-04-01T13:01:21;99182.69;;;14.18;81.80
55068;BME280;40965;52.368;9.712;2023-04-01T13:07:32;99191.88;;;14.09;81.42
55068;BME280;40965;52.368;9.712;2023-04-01T13:16:16;99210.88;;;13.57;81.18
55068;BME280;40965;52.368;9.712;2023-04-01T13:19:03;99213.34;;;13.41;80.17
55068;BME280;40965;52.368;9.712;2023-04-01T13:21:50;99219.63;;;13.16;82.11
55068;BME280;40965;52.368;9.712;2023-04-01T13:24:27;99222.44;;;12.91;84.76
55068;BME280;40965;52.368;9.712;2023-04-01T13:33:16;99224.69;;;13.00;87.67
55068;BME280;40965;52.368;9.712;2023-04-01T13:39:05;99228.03;;;13.04;87.19
55068;BME280;40965;52.368;9.712;2023-04-01T13:45:12;99244.56;;;12.85;86.65
55068;BME280;40965;52.368;9.712;2023-04-01T13:48:33;99245.06;;;12.73;88.20
55068;BME280;40965;52.368;9.712;2023-04-01T13:51:20;99248.97;;;12.63;88.85
55068;BME280;40965;52.368;9.712;2023-04-01T14:00:06;99260.56;;;12.57;95.06
55068;BME280;40965;52.368;9.712;2023-04-01T14:09:24;99275.63;;;11.30;100.00
55068;BME280;40965;52.368;9.712;2023-04-01T14:15:35;99293.38;;;10.68;100.00
55068;BME280;40965;52.368;9.712;2023-04-01T14:18:19;99294.72;;;10.52;100.00
55068;BME280;40965;52.368;9.712;2023-04-01T14:27:41;99325.34;;;10.18;100.00
55068;BME280;40965;52.368;9.712;2023-04-01T14:30:43;99324.06;;;10.02;100.00
55068;BME280;40965;52.368;9.712;2023-04-01T14:36:34;99335.03;;;9.83;100.00
55068;BME280;40965;52.368;9.712;2023-04-01T14:49:20;99355.16;;;9.47;100.00
55068;BME280;40965;52.368;9.712;2023-04-01T14:52:32;99351.59;;;9.49;100.00
55068;BME280;40965;52.368;9.712;2023-04-01T14:55:35;99367.19;;;9.52;100.00
55068;BME280;40965;52.368;9.712;2023-04-01T14:58:13;99369.81;;;9.52;100.00
55068;BME280;40965;52.368;9.712;2023-04-01T15:03:55;99387.47;;;9.41;100.00
55068;BME280;40965;52.368;9.712;2023-04-01T15:09:52;99393.03;;;9.29;100.00
55068;BME280;40965;52.368;9.712;2023-04-01T15:19:18;99401.53;;;8.99;100.00
55068;BME280;40965;52.368;9.712;2023-04-01T15:31:09;99436.13;;;8.67;100.00
55068;BME280;40965;52.368;9.712;2023-04-01T15:34:15;99447.81;;;8.49;100.00
55068;BME280;40965;52.368;9.712;2023-04-01T15:36:56;99445.34;;;8.41;100.00
55068;BME280;40965;52.368;9.712;2023-04-01T15:39:49;99455.88;;;8.35;100.00
55068;BME280;40965;52.368;9.712;2023-04-01T15:42:30;99462.97;;;8.28;100.00
55068;BME280;40965;52.368;9.712;2023-04-01T15:52:07;99480.00;;;7.98;100.00
55068;BME280;40965;52.368;9.712;2023-04-01T15:54:54;99484.38;;;7.95;100.00
55068;BME280;40965;52.368;9.712;2023-04-01T15:57:46;99487.06;;;7.91;100.00
55068;BME280;40965;52.368;9.712;2023-04-01T16:00:30;99495.91;;;7.81;100.00
55068;BME280;40965;52.368;9.712;2023-04-01T16:03:29;99496.84;;;7.76;100.00
55068;BME280;40965;52.368;9.712;2023-04-01T16:06:17;99509.16;;;7.68;100.00
55068;BME280;40965;52.368;9.712;2023-04-01T16:12:16;99523.22;;;7.56;100.00
55068;BME280;40965;52.368;9.712;2023-04-01T16:14:58;99535.44;;;7.51;100.00
55068;BME280;40965;52.368;9.712;2023-04-01T16:30:03;99547.94;;;7.24;100.00
55068;BME280;40965;52.368;9.712;2023-04-01T16:32:54;99562.72;;;7.24;100.00
55068;BME280;40965;52.368;9.712;2023-04-01T16:35:48;99560.22;;;7.16;100.00
55068;BME280;40965;52.368;9.712;2023-04-01T16:41:25;99580.41;;;6.95;100.00
55068;BME280;40965;52.368;9.712;2023-04-01T16:44:22;99585.69;;;6.88;100.00
55068;BME280;40965;52.368;9.712;2023-04-01T16:47:08;99597.03;;;6.82;100.00
55068;BME280;40965;52.368;9.712;2023-04-01T16:49:46;99597.94;;;6.79;100.00
55068;BME280;40965;52.368;9.712;2023-04-01T16:52:40;99607.47;;;6.77;100.00
55068;BME280;40965;52.368;9.712;2023-04-01T16:55:46;99610.22;;;6.65;100.00
55068;BME280;40965;52.368;9.712;2023-04-01T16:58:36;99615.47;;;6.57;100.00
55068;BME280;40965;52.368;9.712;2023-04-01T17:01:16;99625.94;;;6.51;100.00
55068;BME280;40965;52.368;9.712;2023-04-01T17:03:52;99630.31;;;6.46;100.00
55068;BME280;40965;52.368;9.712;2023-04-01T17:06:38;99634.63;;;6.44;100.00
55068;BME280;40965;52.368;9.712;2023-04-01T17:09:26;99639.03;;;6.37;100.00
55068;BME280;40965;52.368;9.712;2023-04-01T17:12:08;99643.38;;;6.37;100.00
55068;BME280;40965;52.368;9.712;2023-04-01T17:15:12;99649.44;;;6.40;100.00
55068;BME280;40965;52.368;9.712;2023-04-01T17:18:43;99654.63;;;6.40;100.00
55068;BME280;40965;52.368;9.712;2023-04-01T17:23:50;99672.06;;;6.23;100.00
55068;BME280;40965;52.368;9.712;2023-04-01T17:26:47;99680.72;;;6.22;100.00
55068;BME280;40965;52.368;9.712;2023-04-01T17:33:05;99699.81;;;6.18;100.00
55068;BME280;40965;52.368;9.712;2023-04-01T17:38:55;99705.94;;;6.10;100.00
55068;BME280;40965;52.368;9.712;2023-04-01T17:47:36;99727.69;;;5.89;100.00
55068;BME280;40965;52.368;9.712;2023-04-01T17:53:33;99746.78;;;5.74;100.00
55068;BME280;40965;52.368;9.712;2023-04-01T17:59:34;99758.06;;;5.62;100.00
55068;BME280;40965;52.368;9.712;2023-04-01T18:08:13;99789.25;;;5.55;100.00
55068;BME280;40965;52.368;9.712;2023-04-01T18:11:04;99790.13;;;5.51;100.00
55068;BME280;40965;52.368;9.712;2023-04-01T18:17:01;99803.13;;;5.47;100.00
55068;BME280;40965;52.368;9.712;2023-04-01T18:40:54;99856.75;;;5.21;100.00
55068;BME280;40965;52.368;9.712;2023-04-01T18:43:59;99869.72;;;5.21;100.00
55068;BME280;40965;52.368;9.712;2023-04-01T18:46:46;99877.50;;;5.22;100.00
55068;BME280;40965;52.368;9.712;2023-04-01T18:49:25;99877.50;;;5.16;100.00
55068;BME280;40965;52.368;9.712;2023-04-01T18:52:09;99881.81;;;5.09;100.00
55068;BME280;40965;52.368;9.712;2023-04-01T18:57:54;99899.13;;;5.12;100.00
55068;BME280;40965;52.368;9.712;2023-04-01T19:00:39;99901.72;;;5.13;100.00
55068;BME280;40965;52.368;9.712;2023-04-01T19:06:53;99919.00;;;4.97;100.00
55068;BME280;40965;52.368;9.712;2023-04-01T19:09:25;99918.97;;;4.90;100.00
55068;BME280;40965;52.368;9.712;2023-04-01T19:12:43;99935.38;;;4.87;100.00
55068;BME280;40965;52.368;9.712;2023-04-01T19:29:39;99975.09;;;4.69;100.00
55068;BME280;40965;52.368;9.712;2023-04-01T19:38:11;99981.09;;;4.57;100.00
55068;BME280;40965;52.368;9.712;2023-04-01T19:46:51;100007.03;;;4.60;100.00